Omer, Michigan
Current Conditions -  °F | °C
As of 1:32 PM on Thursday 23 Oct 2014 (Local Time) from KIKW Reporting Station
Overcast Overcast  
Wind Chill: 48°   Ceiling: 1600
Heat Index: 48°   Visibility: 10mi
Dew Point: 38°   Wind: 3mph
Humidity: 70%   Direction: 210°SSW
Pressure: 30.2"   Gusts: NA
Location:  44.05°N, 83.85°W
Report Text: KIKW 231732Z AUTO 21003KT 10SM OVC016 09/04 A3020 RMK AO2 T00870036
Loading
Personal Weather Stations






























Interactive Weather Map
Tropical Storm Tracking
New forecast layout! Learn more

10-Day Weather Forecast

Advertisements
Track Severe Weather on mobile